createdAt,value
2023-01-17T00:01:34.185Z,99842.44
2023-01-17T00:04:19.923Z,99836.31
2023-01-17T00:07:05.634Z,99826.25
2023-01-17T00:09:51.066Z,99833.59
2023-01-17T00:12:18.188Z,99827.75
2023-01-17T00:14:45.023Z,99833.78
2023-01-17T00:17:12.097Z,99834.97
2023-01-17T00:19:57.640Z,99832.44
2023-01-17T00:22:45.852Z,99829.19
2023-01-17T00:25:33.468Z,99822.16
2023-01-17T00:28:00.660Z,99827.66
2023-01-17T00:30:28.025Z,99817.19
2023-01-17T00:32:54.872Z,99820.75
2023-01-17T00:35:25.751Z,99827.75
2023-01-17T00:38:22.679Z,99819.97
2023-01-17T00:40:49.957Z,99821.06
2023-01-17T00:43:38.018Z,99830.69
2023-01-17T00:46:24.109Z,99824.72
2023-01-17T00:49:09.750Z,99815.09
2023-01-17T00:51:55.885Z,99828.19
2023-01-17T00:54:41.398Z,99815.28
2023-01-17T00:57:27.049Z,99832.63
2023-01-17T01:00:12.723Z,99825.97
2023-01-17T01:02:58.255Z,99827.13
2023-01-17T01:05:43.946Z,99818.06
2023-01-17T01:08:43.673Z,99806.44
2023-01-17T01:11:35.238Z,99815.63
2023-01-17T01:14:21.504Z,99810.38
2023-01-17T01:17:07.019Z,99802.69
2023-01-17T01:19:52.540Z,99805.25
2023-01-17T01:22:38.180Z,99812.66
2023-01-17T01:25:24.292Z,99808.81
2023-01-17T01:28:09.943Z,99811.31
2023-01-17T01:30:55.508Z,99806.69
2023-01-17T01:33:22.286Z,99808.44
2023-01-17T01:35:54.332Z,99796.16
2023-01-17T01:38:23.835Z,99783.81
2023-01-17T01:40:53.416Z,99789.56
2023-01-17T01:43:41.520Z,99793.63
2023-01-17T01:46:11.750Z,99786.34
2023-01-17T01:48:53.823Z,99791.84
2023-01-17T01:51:28.028Z,99773.13
2023-01-17T01:54:02.889Z,99771.81
2023-01-17T01:56:31.378Z,99776.53
2023-01-17T01:59:01.407Z,99773.81
2023-01-17T02:01:29.892Z,99770.44
2023-01-17T02:03:57.248Z,99777.31
2023-01-17T02:06:32.544Z,99765.56
2023-01-17T02:09:02.277Z,99748.50
2023-01-17T02:11:29.259Z,99751.84
2023-01-17T02:13:56.137Z,99765.38
2023-01-17T02:16:44.541Z,99759.00
2023-01-17T02:19:49.759Z,99744.41
2023-01-17T02:22:31.710Z,99738.06
2023-01-17T02:25:04.542Z,99757.63
2023-01-17T02:28:17.791Z,99747.59
2023-01-17T02:30:50.651Z,99743.34
2023-01-17T02:33:25.614Z,99745.31
2023-01-17T02:36:33.303Z,99742.09
2023-01-17T02:39:12.200Z,99733.44
2023-01-17T02:41:47.238Z,99730.84
2023-01-17T02:44:18.591Z,99727.84
2023-01-17T02:46:50.573Z,99720.59
2023-01-17T02:49:21.567Z,99715.06
2023-01-17T02:52:26.776Z,99698.09
2023-01-17T02:55:11.595Z,99699.94
2023-01-17T02:57:53.577Z,99700.25
2023-01-17T03:00:32.963Z,99693.63
2023-01-17T03:03:10.436Z,99694.06
2023-01-17T03:05:49.521Z,99707.31
2023-01-17T03:08:17.403Z,99714.66
2023-01-17T03:10:45.367Z,99715.56
2023-01-17T03:13:12.332Z,99706.63
2023-01-17T03:15:40.176Z,99711.66
2023-01-17T03:18:13.017Z,99694.56
2023-01-17T03:20:39.978Z,99698.00
2023-01-17T03:23:06.991Z,99694.63
2023-01-17T03:25:34.143Z,99705.81
2023-01-17T03:28:00.986Z,99701.31
2023-01-17T03:30:28.026Z,99698.44
2023-01-17T03:32:54.870Z,99692.22
2023-01-17T03:35:21.760Z,99703.03
2023-01-17T03:37:48.725Z,99697.28
2023-01-17T03:40:15.591Z,99704.75
2023-01-17T03:42:42.899Z,99702.00
2023-01-17T03:45:10.261Z,99698.94
2023-01-17T03:47:37.174Z,99691.28
2023-01-17T03:50:04.743Z,99682.53
2023-01-17T03:52:32.553Z,99686.28
2023-01-17T03:54:59.766Z,99688.06
2023-01-17T03:57:26.672Z,99687.47
2023-01-17T03:59:53.492Z,99703.97
2023-01-17T04:02:20.568Z,99694.44
2023-01-17T04:04:47.493Z,99699.00
2023-01-17T04:07:14.360Z,99701.72
2023-01-17T04:09:41.248Z,99702.38
2023-01-17T04:12:09.547Z,99713.03
2023-01-17T04:14:36.452Z,99708.31
2023-01-17T04:17:04.237Z,99706.53
2023-01-17T04:19:34.170Z,99708.41
2023-01-17T04:22:01.068Z,99698.34
2023-01-17T04:24:28.036Z,99695.00
2023-01-17T04:26:54.940Z,99696.63
2023-01-17T04:29:21.822Z,99698.94
2023-01-17T04:31:48.899Z,99701.38
2023-01-17T04:34:15.837Z,99701.22
2023-01-17T04:36:42.688Z,99700.84
2023-01-17T04:39:09.531Z,99691.28
2023-01-17T04:41:36.420Z,99710.75
2023-01-17T04:44:04.092Z,99711.16
2023-01-17T04:46:31.268Z,99706.50
2023-01-17T04:48:59.127Z,99704.34
2023-01-17T04:51:26.173Z,99706.97
2023-01-17T04:53:53.016Z,99715.13
2023-01-17T04:56:19.909Z,99715.56
2023-01-17T04:58:46.851Z,99720.97
2023-01-17T05:01:13.942Z,99721.25
2023-01-17T05:03:40.876Z,99720.41
2023-01-17T05:06:07.833Z,99714.91
2023-01-17T05:08:34.748Z,99715.38
2023-01-17T05:11:01.751Z,99709.56
2023-01-17T05:13:28.703Z,99710.31
2023-01-17T05:15:57.860Z,99714.78
2023-01-17T05:18:25.178Z,99704.72
2023-01-17T05:20:52.261Z,99704.97
2023-01-17T05:23:19.089Z,99700.38
2023-01-17T05:25:45.986Z,99701.56
2023-01-17T05:28:14.006Z,99712.47
2023-01-17T05:30:41.440Z,99712.41
2023-01-17T05:33:10.351Z,99723.56
2023-01-17T05:35:37.754Z,99725.97
2023-01-17T05:38:05.061Z,99732.28
2023-01-17T05:40:33.283Z,99739.66
2023-01-17T05:43:01.420Z,99738.56
2023-01-17T05:45:29.907Z,99744.31
2023-01-17T05:47:58.458Z,99742.63
2023-01-17T05:50:31.083Z,99752.66
2023-01-17T05:53:03.780Z,99746.97
2023-01-17T05:55:31.998Z,99748.44
2023-01-17T05:57:59.731Z,99750.41
2023-01-17T06:00:27.484Z,99757.50
2023-01-17T06:02:55.888Z,99758.34
2023-01-17T06:05:23.447Z,99761.06
2023-01-17T06:07:50.373Z,99764.59
2023-01-17T06:10:19.241Z,99761.94
2023-01-17T06:12:46.858Z,99765.69
2023-01-17T06:15:15.495Z,99757.97
2023-01-17T06:17:42.506Z,99747.53
2023-01-17T06:20:11.544Z,99754.44
2023-01-17T06:22:38.416Z,99746.00
2023-01-17T06:25:05.700Z,99747.19
2023-01-17T06:27:32.606Z,99760.41
2023-01-17T06:29:59.455Z,99764.28
2023-01-17T06:32:26.276Z,99750.44
2023-01-17T06:34:53.409Z,99739.97
2023-01-17T06:37:20.260Z,99755.97
2023-01-17T06:39:47.180Z,99760.75
2023-01-17T06:42:14.058Z,99746.72
2023-01-17T06:44:41.061Z,99748.44
2023-01-17T06:47:07.924Z,99752.22
2023-01-17T06:49:34.774Z,99764.94
2023-01-17T06:52:01.643Z,99768.31
2023-01-17T06:54:28.534Z,99785.13
2023-01-17T06:56:55.461Z,99783.41
2023-01-17T06:59:22.422Z,99781.59
2023-01-17T07:01:49.305Z,99778.72
2023-01-17T07:04:16.261Z,99781.47
2023-01-17T07:06:43.128Z,99776.44
2023-01-17T07:09:10.081Z,99773.00
2023-01-17T07:11:36.973Z,99782.72
2023-01-17T07:14:03.840Z,99788.63
2023-01-17T07:16:30.801Z,99789.13
2023-01-17T07:18:58.197Z,99791.63
2023-01-17T07:21:25.164Z,99799.81
2023-01-17T07:23:52.091Z,99801.72
2023-01-17T07:26:19.082Z,99802.53
2023-01-17T07:28:46.001Z,99796.06
2023-01-17T07:34:29.242Z,99807.28
2023-01-17T07:36:56.906Z,99800.44
2023-01-17T07:39:23.883Z,99808.22
2023-01-17T07:41:50.728Z,99796.19
2023-01-17T07:44:19.625Z,99791.31
2023-01-17T07:46:46.774Z,99795.56
2023-01-17T07:49:14.713Z,99793.47
2023-01-17T07:51:41.597Z,99790.84
2023-01-17T07:54:08.565Z,99797.63
2023-01-17T07:56:35.520Z,99804.06
2023-01-17T07:59:02.427Z,99805.88
2023-01-17T08:01:29.494Z,99799.97
2023-01-17T08:03:56.520Z,99788.22
2023-01-17T08:06:25.698Z,99790.81
2023-01-17T08:08:56.542Z,99787.44
2023-01-17T08:11:23.591Z,99781.53
2023-01-17T08:17:11.579Z,99785.34
2023-01-17T08:19:38.547Z,99777.84
2023-01-17T08:22:05.404Z,99783.13
2023-01-17T08:24:32.307Z,99782.41
2023-01-17T08:26:59.231Z,99782.34
2023-01-17T08:29:26.273Z,99776.56
2023-01-17T08:31:54.180Z,99779.81
2023-01-17T08:34:21.174Z,99768.09
2023-01-17T08:36:48.066Z,99761.91
2023-01-17T08:39:15.046Z,99748.78
2023-01-17T08:41:41.951Z,99745.25
2023-01-17T08:44:08.853Z,99727.59
2023-01-17T08:46:38.352Z,99724.72
2023-01-17T08:49:08.260Z,99727.91
2023-01-17T08:51:36.580Z,99734.09
2023-01-17T08:54:03.564Z,99734.81
2023-01-17T08:56:30.563Z,99740.34
2023-01-17T08:58:57.424Z,99741.13
2023-01-17T09:01:24.410Z,99732.94
2023-01-17T09:03:52.046Z,99731.56
2023-01-17T09:06:18.991Z,99738.59
2023-01-17T09:08:47.117Z,99727.84
2023-01-17T09:11:18.043Z,99731.09
2023-01-17T09:13:45.065Z,99726.41
2023-01-17T09:16:12.239Z,99714.34
2023-01-17T09:18:39.347Z,99701.94
2023-01-17T09:21:25.970Z,99692.66
2023-01-17T09:23:53.727Z,99685.19
2023-01-17T09:26:22.180Z,99683.41
2023-01-17T09:28:49.546Z,99684.00
2023-01-17T09:31:17.745Z,99680.44
2023-01-17T09:33:44.839Z,99682.78
2023-01-17T09:36:12.187Z,99671.09
2023-01-17T09:38:40.407Z,99672.16
2023-01-17T09:41:31.378Z,99688.44
2023-01-17T09:44:32.162Z,99683.53
2023-01-17T09:47:11.505Z,99676.59
2023-01-17T09:49:44.461Z,99678.56
2023-01-17T09:52:23.392Z,99670.72
2023-01-17T09:54:51.709Z,99671.31
2023-01-17T09:57:41.845Z,99669.97
2023-01-17T10:00:13.009Z,99663.94
2023-01-17T10:03:01.646Z,99674.41
2023-01-17T10:05:43.488Z,99675.94
2023-01-17T10:08:29.843Z,99677.13
2023-01-17T10:11:33.543Z,99685.63
2023-01-17T10:14:18.860Z,99692.81
2023-01-17T10:16:48.445Z,99680.63
2023-01-17T10:19:23.085Z,99679.59
2023-01-17T10:22:15.414Z,99682.72
2023-01-17T10:25:04.161Z,99660.59
2023-01-17T10:27:35.104Z,99673.09
2023-01-17T10:30:05.168Z,99661.06
2023-01-17T10:32:34.780Z,99650.56
2023-01-17T10:35:17.478Z,99653.22
2023-01-17T10:37:45.604Z,99646.03
2023-01-17T10:40:18.140Z,99642.25
2023-01-17T10:42:53.847Z,99643.44
2023-01-17T10:45:28.604Z,99641.72
2023-01-17T10:48:29.909Z,99636.94
2023-01-17T10:51:12.538Z,99634.81
2023-01-17T10:53:59.034Z,99633.53
2023-01-17T10:56:30.225Z,99625.88
2023-01-17T10:59:12.208Z,99624.88
2023-01-17T11:01:39.514Z,99633.94
2023-01-17T11:04:22.835Z,99636.28
2023-01-17T11:07:13.318Z,99625.69
2023-01-17T11:09:42.881Z,99621.94
2023-01-17T11:12:39.788Z,99615.22
2023-01-17T11:15:09.401Z,99630.38
2023-01-17T11:17:48.986Z,99622.63
2023-01-17T11:20:26.352Z,99617.25
2023-01-17T11:23:08.282Z,99619.19
2023-01-17T11:25:35.456Z,99615.13
2023-01-17T11:28:18.103Z,99622.53
2023-01-17T11:30:57.153Z,99608.66
2023-01-17T11:33:53.988Z,99611.94
2023-01-17T11:36:22.322Z,99619.09
2023-01-17T11:39:18.135Z,99611.78
2023-01-17T11:41:47.862Z,99611.03
2023-01-17T11:44:34.197Z,99602.03
2023-01-17T11:47:11.224Z,99605.84
2023-01-17T11:49:42.987Z,99601.38
2023-01-17T11:52:33.071Z,99614.91
2023-01-17T11:55:00.388Z,99602.53
2023-01-17T11:57:31.638Z,99596.66
2023-01-17T12:00:19.514Z,99601.56
2023-01-17T12:03:15.329Z,99600.78
2023-01-17T12:05:42.003Z,99594.34
2023-01-17T12:08:42.919Z,99605.13
2023-01-17T12:11:14.457Z,99603.16
2023-01-17T12:14:02.269Z,99596.59
2023-01-17T12:16:47.949Z,99596.03
2023-01-17T12:19:33.103Z,99605.78
2023-01-17T12:22:00.357Z,99603.41
2023-01-17T12:24:51.403Z,99607.38
2023-01-17T12:27:41.962Z,99599.00
2023-01-17T12:30:24.577Z,99599.97
2023-01-17T12:33:21.641Z,99593.97
2023-01-17T12:36:02.175Z,99602.53
2023-01-17T12:38:35.990Z,99594.06
2023-01-17T12:41:06.517Z,99599.38
2023-01-17T12:43:43.258Z,99593.38
2023-01-17T12:46:21.090Z,99593.69
2023-01-17T12:48:52.325Z,99596.81
2023-01-17T12:51:27.877Z,99586.88
2023-01-17T12:54:16.203Z,99589.38
2023-01-17T12:56:50.784Z,99596.91
2023-01-17T12:59:38.172Z,99591.84
2023-01-17T13:02:33.695Z,99586.38
2023-01-17T13:05:11.831Z,99595.69
2023-01-17T13:07:54.019Z,99597.69
2023-01-17T13:10:31.891Z,99606.44
2023-01-17T13:13:34.630Z,99607.31
2023-01-17T13:16:43.387Z,99619.25
2023-01-17T13:19:29.052Z,99611.72
2023-01-17T13:21:57.545Z,99617.19
2023-01-17T13:24:48.395Z,99615.09
2023-01-17T13:27:44.535Z,99605.31
2023-01-17T13:30:35.717Z,99603.75
2023-01-17T13:33:10.298Z,99605.63
2023-01-17T13:36:15.793Z,99602.53
2023-01-17T13:38:57.653Z,99600.22
2023-01-17T13:41:50.779Z,99592.47
2023-01-17T13:44:24.998Z,99601.63
2023-01-17T13:47:02.179Z,99594.03
2023-01-17T13:49:31.922Z,99611.56
2023-01-17T13:52:23.169Z,99610.59
2023-01-17T13:54:57.274Z,99614.13
2023-01-17T13:57:29.748Z,99630.53
2023-01-17T13:59:59.230Z,99627.28
2023-01-17T14:02:32.046Z,99623.56
2023-01-17T14:05:21.493Z,99624.94
2023-01-17T14:07:58.408Z,99629.59
2023-01-17T14:10:34.633Z,99628.19
2023-01-17T14:13:02.391Z,99629.56
2023-01-17T14:15:33.788Z,99622.38
2023-01-17T14:18:05.117Z,99630.88
2023-01-17T14:20:44.254Z,99631.72
2023-01-17T14:23:25.446Z,99633.84
2023-01-17T14:25:53.475Z,99630.41
2023-01-17T14:28:23.952Z,99631.28
2023-01-17T14:30:56.106Z,99629.47
2023-01-17T14:33:30.353Z,99631.72
2023-01-17T14:36:14.415Z,99628.91
2023-01-17T14:38:44.623Z,99627.09
2023-01-17T14:41:19.125Z,99625.66
2023-01-17T14:43:48.423Z,99629.25
2023-01-17T14:46:28.599Z,99628.09
2023-01-17T14:49:02.447Z,99628.91
2023-01-17T14:51:29.916Z,99636.22
2023-01-17T14:54:02.506Z,99651.38
2023-01-17T14:56:31.446Z,99649.50
2023-01-17T14:59:17.589Z,99655.59
2023-01-17T15:02:06.164Z,99666.19
2023-01-17T15:04:39.359Z,99666.16
2023-01-17T15:07:07.784Z,99668.88
2023-01-17T15:09:38.618Z,99668.69
2023-01-17T15:12:10.509Z,99672.19
2023-01-17T15:14:41.789Z,99663.44
2023-01-17T15:17:20.494Z,99669.75
2023-01-17T15:19:52.990Z,99670.19
2023-01-17T15:22:20.559Z,99680.94
2023-01-17T15:24:49.301Z,99664.19
2023-01-17T15:27:17.086Z,99667.91
2023-01-17T15:29:46.061Z,99665.91
2023-01-17T15:32:20.391Z,99677.25
2023-01-17T15:34:49.703Z,99674.50
2023-01-17T15:37:32.826Z,99668.88
2023-01-17T15:40:17.056Z,99676.34
2023-01-17T15:42:46.937Z,99680.16
2023-01-17T15:45:19.933Z,99683.59
2023-01-17T15:47:47.044Z,99690.44
2023-01-17T15:50:20.069Z,99684.00
2023-01-17T15:53:02.681Z,99689.84
2023-01-17T15:55:40.439Z,99696.56
2023-01-17T15:58:28.575Z,99694.38
2023-01-17T16:00:55.978Z,99686.81
2023-01-17T16:03:24.309Z,99694.34
2023-01-17T16:05:53.358Z,99693.56
2023-01-17T16:08:32.115Z,99683.34
2023-01-17T16:11:02.475Z,99686.31
2023-01-17T16:13:31.766Z,99688.19
2023-01-17T16:16:13.571Z,99691.31
2023-01-17T16:18:40.899Z,99695.44
2023-01-17T16:21:29.273Z,99698.78
2023-01-17T16:23:56.880Z,99705.69
2023-01-17T16:26:24.305Z,99689.72
2023-01-17T16:28:51.891Z,99707.06
2023-01-17T16:31:19.072Z,99703.47
2023-01-17T16:33:49.485Z,99701.13
2023-01-17T16:36:16.930Z,99702.16
2023-01-17T16:38:45.413Z,99701.59
2023-01-17T16:41:12.501Z,99714.00
2023-01-17T16:43:39.620Z,99718.66
2023-01-17T16:46:07.227Z,99716.13
2023-01-17T16:48:34.184Z,99702.84
2023-01-17T16:51:06.806Z,99705.44
2023-01-17T16:53:35.115Z,99708.03
2023-01-17T16:56:12.118Z,99707.03
2023-01-17T16:58:39.812Z,99707.91
2023-01-17T17:01:25.567Z,99708.84
2023-01-17T17:03:52.647Z,99716.34
2023-01-17T17:06:19.922Z,99716.66
2023-01-17T17:08:47.774Z,99727.25
2023-01-17T17:11:23.284Z,99723.94
2023-01-17T17:13:51.354Z,99715.56
2023-01-17T17:16:33.011Z,99724.81
2023-01-17T17:19:03.568Z,99725.34
2023-01-17T17:21:32.173Z,99719.88
2023-01-17T17:24:00.954Z,99717.69
2023-01-17T17:26:32.045Z,99719.88
2023-01-17T17:28:59.149Z,99719.81
2023-01-17T17:31:26.900Z,99714.47
2023-01-17T17:33:58.767Z,99712.63
2023-01-17T17:36:25.723Z,99711.25
2023-01-17T17:38:55.494Z,99707.72
2023-01-17T17:41:24.901Z,99716.66
2023-01-17T17:43:52.444Z,99719.09
2023-01-17T17:46:21.376Z,99713.19
2023-01-17T17:48:49.599Z,99714.06
2023-01-17T17:51:27.837Z,99717.03
2023-01-17T17:53:57.996Z,99720.31
2023-01-17T17:56:25.162Z,99715.69
2023-01-17T17:58:52.341Z,99720.00
2023-01-17T18:01:20.120Z,99720.06
2023-01-17T18:03:47.401Z,99730.22
2023-01-17T18:06:16.179Z,99722.19
2023-01-17T18:08:43.783Z,99721.94
2023-01-17T18:11:19.792Z,99723.59
2023-01-17T18:13:47.923Z,99731.06
2023-01-17T18:16:16.364Z,99732.31
2023-01-17T18:18:48.988Z,99726.81
2023-01-17T18:21:23.745Z,99721.59
2023-01-17T18:23:59.997Z,99723.03
2023-01-17T18:26:35.422Z,99732.81
2023-01-17T18:29:03.506Z,99734.84
2023-01-17T18:31:31.374Z,99743.16
2023-01-17T18:34:05.972Z,99748.09
2023-01-17T18:36:35.045Z,99735.72
2023-01-17T18:39:03.921Z,99722.31
2023-01-17T18:41:31.429Z,99725.28
2023-01-17T18:43:58.413Z,99731.00
2023-01-17T18:46:26.786Z,99727.66
2023-01-17T18:48:57.170Z,99727.56
2023-01-17T18:51:24.954Z,99723.31
2023-01-17T18:53:53.086Z,99713.75
2023-01-17T18:56:21.903Z,99713.47
2023-01-17T18:58:50.411Z,99720.13
2023-01-17T19:01:25.197Z,99710.16
2023-01-17T19:03:54.323Z,99718.25
2023-01-17T19:06:33.218Z,99713.94
2023-01-17T19:09:00.845Z,99714.06
2023-01-17T19:11:28.710Z,99695.81
2023-01-17T19:13:56.298Z,99693.69
2023-01-17T19:16:29.508Z,99696.13
2023-01-17T19:18:58.520Z,99688.19
2023-01-17T19:21:27.646Z,99679.31
2023-01-17T19:23:56.078Z,99691.59
2023-01-17T19:26:25.168Z,99695.59
2023-01-17T19:28:52.982Z,99689.94
2023-01-17T19:31:31.484Z,99699.28
2023-01-17T19:33:59.864Z,99695.88
2023-01-17T19:36:34.530Z,99680.59
2023-01-17T19:39:05.900Z,99689.41
2023-01-17T19:41:36.072Z,99685.34
2023-01-17T19:44:06.051Z,99682.03
2023-01-17T19:46:34.216Z,99692.38
2023-01-17T19:49:01.900Z,99688.91
2023-01-17T19:51:29.060Z,99682.91
2023-01-17T19:53:59.195Z,99684.34
2023-01-17T19:56:27.093Z,99692.75
2023-01-17T19:58:54.709Z,99700.63
2023-01-17T20:01:25.356Z,99703.81
2023-01-17T20:03:53.013Z,99699.47
2023-01-17T20:06:22.141Z,99691.00
2023-01-17T20:08:49.112Z,99677.63
2023-01-17T20:11:19.786Z,99692.06
2023-01-17T20:13:47.760Z,99678.41
2023-01-17T20:16:16.761Z,99679.78
2023-01-17T20:18:44.611Z,99670.63
2023-01-17T20:21:12.437Z,99676.88
2023-01-17T20:23:43.137Z,99677.19
2023-01-17T20:26:18.737Z,99682.84
2023-01-17T20:28:47.650Z,99678.50
2023-01-17T20:31:17.736Z,99666.34
2023-01-17T20:33:47.049Z,99678.94
2023-01-17T20:36:15.606Z,99672.16
2023-01-17T20:38:46.574Z,99681.50
2023-01-17T20:41:19.141Z,99687.38
2023-01-17T20:43:48.460Z,99673.38
2023-01-17T20:46:16.371Z,99681.94
2023-01-17T20:48:48.204Z,99672.34
2023-01-17T20:51:15.795Z,99678.22
2023-01-17T20:53:44.744Z,99683.66
2023-01-17T20:56:14.663Z,99678.50
2023-01-17T20:58:42.676Z,99678.16
2023-01-17T21:01:11.923Z,99679.22
2023-01-17T21:03:40.082Z,99680.53
2023-01-17T21:06:10.032Z,99685.91
2023-01-17T21:08:39.458Z,99673.22
2023-01-17T21:11:08.735Z,99672.88
2023-01-17T21:13:35.659Z,99667.91
2023-01-17T21:16:03.471Z,99669.41
2023-01-17T21:18:33.951Z,99658.50
2023-01-17T21:21:08.367Z,99662.03
2023-01-17T21:23:36.517Z,99661.69
2023-01-17T21:26:04.612Z,99660.28
2023-01-17T21:28:36.784Z,99655.59
2023-01-17T21:31:25.175Z,99654.63
2023-01-17T21:34:04.514Z,99648.72
2023-01-17T21:36:37.391Z,99639.56
2023-01-17T21:39:07.631Z,99654.47
2023-01-17T21:41:39.736Z,99658.31
2023-01-17T21:44:20.745Z,99647.38
2023-01-17T21:46:48.276Z,99651.09
2023-01-17T21:49:15.568Z,99657.41
2023-01-17T21:51:55.436Z,99663.63
2023-01-17T21:55:07.192Z,99659.41
2023-01-17T21:57:52.364Z,99652.16
2023-01-17T22:00:19.554Z,99648.03
2023-01-17T22:02:47.749Z,99632.84
2023-01-17T22:05:16.942Z,99641.50
2023-01-17T22:08:04.669Z,99630.31
2023-01-17T22:10:31.782Z,99637.09
2023-01-17T22:12:58.788Z,99636.16
2023-01-17T22:15:25.783Z,99654.75
2023-01-17T22:17:52.803Z,99634.47
2023-01-17T22:20:21.115Z,99646.94
2023-01-17T22:22:48.405Z,99626.59
2023-01-17T22:25:15.503Z,99630.09
2023-01-17T22:27:42.359Z,99617.31
2023-01-17T22:30:13.078Z,99618.63
2023-01-17T22:32:40.400Z,99616.41
2023-01-17T22:35:08.224Z,99623.44
2023-01-17T22:37:35.419Z,99626.03
2023-01-17T22:40:04.991Z,99608.09
2023-01-17T22:42:34.998Z,99610.00
2023-01-17T22:45:02.224Z,99596.19
2023-01-17T22:47:29.373Z,99587.31
2023-01-17T22:49:56.315Z,99606.56
2023-01-17T22:52:23.172Z,99587.31
2023-01-17T22:54:50.732Z,99574.50
2023-01-17T22:57:18.339Z,99579.78
2023-01-17T22:59:45.172Z,99571.59
2023-01-17T23:02:12.187Z,99588.59
2023-01-17T23:04:39.059Z,99580.47
2023-01-17T23:07:05.901Z,99603.16
2023-01-17T23:09:33.184Z,99578.84
2023-01-17T23:12:00.397Z,99575.56
2023-01-17T23:14:52.560Z,99588.03
2023-01-17T23:17:43.105Z,99570.00
2023-01-17T23:20:11.547Z,99564.94
2023-01-17T23:22:38.755Z,99578.22
2023-01-17T23:25:09.403Z,99571.97
2023-01-17T23:28:03.513Z,99591.47
2023-01-17T23:30:40.966Z,99576.94
2023-01-17T23:33:10.337Z,99581.66
2023-01-17T23:35:42.560Z,99585.97
2023-01-17T23:38:37.626Z,99575.03
2023-01-17T23:41:24.435Z,99577.34
2023-01-17T23:43:52.823Z,99584.19
2023-01-17T23:46:20.027Z,99581.47
2023-01-17T23:48:47.225Z,99579.09
2023-01-17T23:51:14.350Z,99585.50
2023-01-17T23:53:41.588Z,99574.53
2023-01-17T23:56:20.850Z,99587.78
2023-01-17T23:58:48.287Z,99587.88
